createdAt,value
2019-05-14T00:03:23.054Z,16.81
2019-05-14T00:06:32.888Z,16.81
2019-05-14T00:12:11.088Z,16.80
2019-05-14T00:14:44.896Z,16.73
2019-05-14T00:17:16.646Z,16.47
2019-05-14T00:19:47.642Z,16.58
2019-05-14T00:22:21.671Z,16.63
2019-05-14T00:24:52.863Z,16.60
2019-05-14T00:27:24.776Z,16.58
2019-05-14T00:32:46.501Z,16.38
2019-05-14T00:38:07.731Z,16.43
2019-05-14T00:40:48.217Z,16.40
2019-05-14T00:43:38.854Z,16.28
2019-05-14T00:46:11.832Z,16.28
2019-05-14T00:48:44.191Z,16.28
2019-05-14T00:51:35.151Z,16.28
2019-05-14T00:54:11.179Z,16.25
2019-05-14T00:57:02.383Z,16.25
2019-05-14T00:59:36.562Z,16.14
2019-05-14T01:02:08.587Z,16.08
2019-05-14T01:05:01.712Z,16.04
2019-05-14T01:07:35.457Z,16.04
2019-05-14T01:10:11.460Z,15.93
2019-05-14T01:12:43.150Z,15.88
2019-05-14T01:15:33.999Z,15.86
2019-05-14T01:18:24.522Z,15.82
2019-05-14T01:26:31.615Z,15.70
2019-05-14T01:29:22.192Z,15.74
2019-05-14T01:34:47.039Z,15.73
2019-05-14T01:37:18.755Z,15.74
2019-05-14T01:39:52.037Z,15.70
2019-05-14T01:45:31.417Z,15.54
2019-05-14T01:48:02.218Z,15.55
2019-05-14T01:50:33.918Z,15.48
2019-05-14T01:53:05.743Z,15.49
2019-05-14T01:55:37.443Z,15.52
2019-05-14T02:00:52.637Z,15.43
2019-05-14T02:03:24.609Z,15.34
2019-05-14T02:06:15.482Z,15.38
2019-05-14T02:11:51.851Z,15.47
2019-05-14T02:14:24.863Z,15.38
2019-05-14T02:16:56.629Z,15.43
2019-05-14T02:19:28.371Z,15.33
2019-05-14T02:22:02.120Z,15.42
2019-05-14T02:24:33.561Z,15.27
2019-05-14T02:27:05.465Z,15.18
2019-05-14T02:29:37.322Z,15.16
2019-05-14T02:32:10.556Z,15.15
2019-05-14T02:34:42.730Z,15.08
2019-05-14T02:37:14.434Z,15.03
2019-05-14T02:39:46.305Z,15.08
2019-05-14T02:42:29.853Z,15.13
2019-05-14T02:44:53.536Z,15.07
2019-05-14T02:47:25.222Z,15.06
2019-05-14T02:50:05.424Z,15.23
2019-05-14T02:53:39.599Z,15.16
2019-05-14T02:56:29.320Z,15.04
2019-05-14T02:59:20.917Z,14.94
2019-05-14T03:02:11.722Z,14.83
2019-05-14T03:05:22.988Z,14.73
2019-05-14T03:16:32.555Z,14.67
2019-05-14T03:19:00.443Z,14.83
2019-05-14T03:21:32.233Z,14.74
2019-05-14T03:24:04.039Z,14.78
2019-05-14T03:26:39.480Z,14.60
2019-05-14T03:29:10.076Z,14.51
2019-05-14T03:34:32.175Z,14.47
2019-05-14T03:37:03.126Z,14.55
2019-05-14T03:42:19.419Z,14.67
2019-05-14T03:44:50.575Z,14.59
2019-05-14T03:47:22.444Z,14.48
2019-05-14T03:49:53.323Z,14.49
2019-05-14T03:52:25.294Z,14.38
2019-05-14T03:55:16.174Z,14.38
2019-05-14T03:57:50.003Z,14.42
2019-05-14T04:00:50.196Z,14.42
2019-05-14T04:03:20.560Z,14.42
2019-05-14T04:09:00.278Z,14.48
2019-05-14T04:11:50.327Z,14.75
2019-05-14T04:14:24.609Z,15.15
2019-05-14T04:17:05.257Z,15.48
2019-05-14T04:19:29.987Z,15.72
2019-05-14T04:22:01.792Z,15.79
2019-05-14T04:24:52.791Z,15.98
2019-05-14T04:27:34.913Z,16.18
2019-05-14T04:30:29.070Z,16.44
2019-05-14T04:33:20.973Z,16.52
2019-05-14T04:35:52.926Z,16.62
2019-05-14T04:38:24.777Z,16.83
2019-05-14T04:41:39.114Z,16.95
2019-05-14T04:47:41.940Z,17.29
2019-05-14T04:50:31.505Z,17.29
2019-05-14T04:53:13.885Z,17.52
2019-05-14T04:55:49.218Z,17.69
2019-05-14T04:58:21.636Z,17.85
2019-05-14T05:03:40.090Z,17.97
2019-05-14T05:06:10.532Z,18.18
2019-05-14T05:08:42.437Z,18.35
2019-05-14T05:11:52.350Z,18.59
2019-05-14T05:14:23.985Z,18.67
2019-05-14T05:16:59.473Z,18.72
2019-05-14T05:24:54.625Z,19.22
2019-05-14T05:35:59.249Z,19.70
2019-05-14T05:38:49.756Z,19.71
2019-05-14T05:41:39.474Z,19.78
2019-05-14T05:44:30.361Z,20.05
2019-05-14T05:47:21.051Z,20.20
2019-05-14T05:50:11.731Z,20.36
2019-05-14T05:55:34.230Z,20.41
2019-05-14T05:58:22.397Z,20.48
2019-05-14T06:01:20.830Z,20.69
2019-05-14T06:07:02.830Z,21.00
2019-05-14T06:09:37.942Z,21.21
2019-05-14T06:12:12.083Z,21.03
2019-05-14T06:18:18.058Z,21.26
2019-05-14T06:20:54.280Z,21.47
2019-05-14T06:23:45.517Z,21.96
2019-05-14T06:26:19.022Z,22.08
2019-05-14T06:31:40.893Z,22.65
2019-05-14T06:34:52.047Z,22.78
2019-05-14T06:37:24.041Z,23.06
2019-05-14T06:43:48.868Z,22.77
2019-05-14T06:49:55.289Z,22.32
2019-05-14T06:52:45.270Z,22.37
2019-05-14T06:55:35.124Z,22.81
2019-05-14T06:58:20.492Z,23.28
2019-05-14T07:01:57.979Z,23.28
2019-05-14T07:04:58.902Z,23.27
2019-05-14T07:07:50.862Z,23.21
2019-05-14T07:10:22.738Z,23.15
2019-05-14T07:13:18.698Z,23.15
2019-05-14T07:15:50.328Z,23.11
2019-05-14T07:19:15.714Z,23.52
2019-05-14T07:21:04.623Z,23.64
2019-05-14T07:24:19.435Z,23.27
2019-05-14T07:27:28.842Z,23.41
2019-05-14T07:30:19.425Z,23.71
2019-05-14T07:36:58.664Z,24.06
2019-05-14T07:40:01.700Z,23.71
2019-05-14T07:43:08.846Z,23.63
2019-05-14T07:45:40.578Z,23.71
2019-05-14T07:48:31.235Z,23.84
2019-05-14T07:51:08.919Z,24.15
2019-05-14T07:53:51.789Z,24.08
2019-05-14T07:56:54.617Z,24.02
2019-05-14T07:59:28.561Z,23.85
2019-05-14T08:05:10.991Z,23.63
2019-05-14T08:10:35.532Z,23.78
2019-05-14T08:13:08.434Z,23.63
2019-05-14T08:15:59.231Z,23.75
2019-05-14T08:28:04.690Z,24.33
2019-05-14T08:43:24.216Z,24.22
2019-05-14T08:45:58.542Z,24.05
2019-05-14T08:48:51.517Z,24.53
2019-05-14T08:54:46.322Z,23.98
2019-05-14T08:57:50.610Z,23.63
2019-05-14T09:00:24.398Z,23.74
2019-05-14T09:12:12.745Z,23.98
2019-05-14T09:15:28.804Z,24.04
2019-05-14T09:19:30.712Z,24.03
2019-05-14T09:21:39.547Z,24.00
2019-05-14T09:24:09.834Z,24.07
2019-05-14T09:32:44.263Z,24.04
2019-05-14T09:35:43.747Z,24.22
2019-05-14T09:38:29.867Z,24.09
2019-05-14T09:41:15.470Z,23.85
2019-05-14T09:47:08.592Z,24.17
2019-05-14T09:52:53.759Z,23.95
2019-05-14T09:56:05.663Z,23.90
2019-05-14T09:58:49.598Z,23.68
2019-05-14T10:02:09.215Z,24.05
2019-05-14T10:04:44.429Z,23.89
2019-05-14T10:14:03.065Z,23.49
2019-05-14T10:16:38.243Z,23.35
2019-05-14T10:19:29.672Z,22.87
2019-05-14T10:25:35.078Z,23.14
2019-05-14T10:28:41.358Z,23.65
2019-05-14T10:31:59.200Z,24.26
2019-05-14T10:35:02.618Z,24.17
2019-05-14T10:37:34.527Z,24.33
2019-05-14T10:40:24.353Z,24.32
2019-05-14T10:43:28.717Z,24.71
2019-05-14T10:52:28.789Z,24.14
2019-05-14T11:07:18.622Z,24.54
2019-05-14T11:17:54.507Z,24.77
2019-05-14T11:20:35.843Z,24.91
2019-05-14T11:23:29.620Z,25.16
2019-05-14T11:26:49.937Z,25.26
2019-05-14T11:29:42.841Z,25.26
2019-05-14T11:35:50.631Z,25.54
2019-05-14T11:42:16.699Z,25.04
2019-05-14T11:48:42.414Z,25.90
2019-05-14T11:54:29.053Z,25.27
2019-05-14T11:59:44.539Z,25.13
2019-05-14T12:02:46.507Z,25.38
2019-05-14T12:05:20.751Z,25.65
2019-05-14T12:08:28.812Z,25.37
2019-05-14T12:17:16.737Z,24.26
2019-05-14T12:20:12.227Z,24.40
2019-05-14T12:22:48.804Z,24.79
2019-05-14T12:25:52.579Z,25.38
2019-05-14T12:29:19.926Z,25.03
2019-05-14T12:44:10.155Z,25.94
2019-05-14T12:49:11.518Z,25.73
2019-05-14T12:58:28.710Z,25.72
2019-05-14T13:01:31.223Z,25.36
2019-05-14T13:04:21.934Z,24.86
2019-05-14T13:07:13.277Z,25.26
2019-05-14T13:13:29.185Z,26.12
2019-05-14T13:16:13.784Z,26.70
2019-05-14T13:19:14.349Z,26.39
2019-05-14T13:22:14.243Z,26.28
2019-05-14T13:33:39.290Z,24.78
2019-05-14T13:36:11.826Z,24.78
2019-05-14T13:38:43.804Z,25.63
2019-05-14T13:44:29.219Z,26.53
2019-05-14T13:47:02.025Z,26.18
2019-05-14T13:49:35.611Z,25.37
2019-05-14T13:55:10.449Z,25.09
2019-05-14T14:01:15.668Z,25.96
2019-05-14T14:04:02.231Z,25.82
2019-05-14T14:07:03.984Z,25.31
2019-05-14T14:13:01.171Z,25.77
2019-05-14T14:16:06.656Z,26.12
2019-05-14T14:18:39.539Z,25.77
2019-05-14T14:22:09.948Z,25.31
2019-05-14T14:24:56.076Z,25.37
2019-05-14T14:27:40.953Z,25.83
2019-05-14T14:30:39.446Z,25.79
2019-05-14T14:36:20.282Z,25.17
2019-05-14T14:39:05.831Z,25.26
2019-05-14T14:47:29.344Z,26.81
2019-05-14T14:50:34.106Z,26.16
2019-05-14T14:56:48.693Z,25.25
2019-05-14T15:00:29.243Z,25.09
2019-05-14T15:02:53.351Z,25.72
2019-05-14T15:05:45.376Z,26.32
2019-05-14T15:08:38.749Z,26.06
2019-05-14T15:11:11.767Z,25.97
2019-05-14T15:14:05.113Z,25.77
2019-05-14T15:16:58.590Z,25.45
2019-05-14T15:20:01.158Z,25.22
2019-05-14T15:23:03.311Z,24.82
2019-05-14T15:25:35.254Z,25.30
2019-05-14T15:28:26.045Z,26.30
2019-05-14T15:31:19.123Z,26.95
2019-05-14T15:34:41.847Z,27.55
2019-05-14T15:37:42.713Z,27.01
2019-05-14T15:40:34.088Z,26.19
2019-05-14T15:43:05.937Z,25.51
2019-05-14T15:48:40.659Z,24.99
2019-05-14T15:54:11.260Z,25.75
2019-05-14T16:00:01.121Z,24.98
2019-05-14T16:02:52.594Z,24.81
2019-05-14T16:05:34.818Z,24.82
2019-05-14T16:08:25.703Z,24.77
2019-05-14T16:11:39.195Z,24.57
2019-05-14T16:14:12.598Z,24.37
2019-05-14T16:19:28.532Z,23.93
2019-05-14T16:22:01.473Z,23.83
2019-05-14T16:24:33.096Z,23.69
2019-05-14T16:27:04.798Z,24.27
2019-05-14T16:29:45.108Z,24.68
2019-05-14T16:32:48.564Z,25.06
2019-05-14T16:35:23.920Z,25.18
2019-05-14T16:38:14.798Z,25.56
2019-05-14T16:41:05.381Z,26.05
2019-05-14T16:43:39.977Z,26.19
2019-05-14T16:46:51.770Z,26.78
2019-05-14T16:49:48.620Z,26.59
2019-05-14T16:52:41.706Z,26.78
2019-05-14T16:55:22.627Z,26.66
2019-05-14T16:58:03.286Z,26.47
2019-05-14T17:00:53.972Z,26.54
2019-05-14T17:03:45.081Z,26.30
2019-05-14T17:06:29.375Z,26.24
2019-05-14T17:08:50.588Z,26.02
2019-05-14T17:11:41.514Z,25.58
2019-05-14T17:17:16.021Z,25.47
2019-05-14T17:19:48.132Z,25.47
2019-05-14T17:22:28.707Z,25.31
2019-05-14T17:25:27.099Z,25.17
2019-05-14T17:30:50.769Z,25.21
2019-05-14T17:34:20.385Z,24.56
2019-05-14T17:36:53.871Z,24.35
2019-05-14T17:42:29.664Z,23.43
2019-05-14T17:48:33.194Z,22.86
2019-05-14T17:51:28.454Z,22.55
2019-05-14T17:57:01.925Z,22.27
2019-05-14T18:02:28.752Z,21.95
2019-05-14T18:05:00.404Z,21.81
2019-05-14T18:07:32.461Z,21.54
2019-05-14T18:10:23.055Z,21.54
2019-05-14T18:13:10.718Z,21.49
2019-05-14T18:16:01.346Z,21.41
2019-05-14T18:18:51.086Z,21.20
2019-05-14T18:21:44.390Z,21.12
2019-05-14T18:27:24.261Z,20.81
2019-05-14T18:35:44.987Z,20.54
2019-05-14T18:41:04.584Z,20.41
2019-05-14T18:43:36.584Z,20.38
2019-05-14T18:46:41.074Z,20.36
2019-05-14T18:49:00.730Z,20.24
2019-05-14T18:51:32.670Z,19.94
2019-05-14T18:54:42.996Z,19.94
2019-05-14T19:03:15.235Z,19.72
2019-05-14T19:06:05.788Z,19.63
2019-05-14T19:11:40.406Z,19.38
2019-05-14T19:14:31.381Z,19.36
2019-05-14T19:17:22.294Z,19.31
2019-05-14T19:23:18.871Z,19.19
2019-05-14T19:31:27.787Z,18.88
2019-05-14T19:37:33.208Z,18.67
2019-05-14T19:39:58.706Z,18.45
2019-05-14T19:42:30.970Z,18.45
2019-05-14T19:45:24.648Z,18.40
2019-05-14T19:47:58.415Z,18.49
2019-05-14T19:50:51.417Z,18.24
2019-05-14T19:53:42.314Z,18.24
2019-05-14T19:59:54.504Z,18.05
2019-05-14T20:05:21.501Z,17.94
2019-05-14T20:08:32.623Z,18.00
2019-05-14T20:11:05.193Z,17.86
2019-05-14T20:13:39.390Z,17.78
2019-05-14T20:16:10.384Z,17.67
2019-05-14T20:24:22.066Z,17.70
2019-05-14T20:30:09.103Z,17.63
2019-05-14T20:39:18.078Z,17.58
2019-05-14T20:42:01.471Z,17.47
2019-05-14T20:45:05.207Z,17.50
2019-05-14T20:47:39.141Z,17.60
2019-05-14T20:59:38.959Z,17.59
2019-05-14T21:02:14.272Z,17.38
2019-05-14T21:08:22.268Z,17.20
2019-05-14T21:11:31.724Z,17.05
2019-05-14T21:30:29.428Z,16.75
2019-05-14T21:39:24.155Z,16.80
2019-05-14T21:41:59.511Z,16.49
2019-05-14T21:44:51.609Z,16.49
2019-05-14T21:53:42.778Z,16.50
2019-05-14T21:59:48.126Z,16.62
2019-05-14T22:05:28.399Z,16.47
2019-05-14T22:08:27.901Z,16.53
2019-05-14T22:11:40.109Z,16.43
2019-05-14T22:17:20.252Z,16.31
2019-05-14T22:23:48.359Z,16.29
2019-05-14T22:26:44.413Z,16.23
2019-05-14T22:32:40.351Z,16.13
2019-05-14T22:35:42.819Z,16.10
2019-05-14T22:39:01.612Z,16.06
2019-05-14T22:44:39.913Z,15.97
2019-05-14T22:47:13.605Z,15.91
2019-05-14T22:50:26.063Z,15.92
2019-05-14T22:59:29.359Z,15.74
2019-05-14T23:02:01.196Z,15.74
2019-05-14T23:04:33.093Z,15.81
2019-05-14T23:07:05.015Z,15.99
2019-05-14T23:09:55.433Z,16.08
2019-05-14T23:12:28.732Z,16.08
2019-05-14T23:15:19.711Z,16.00
2019-05-14T23:17:53.272Z,16.00
2019-05-14T23:20:49.027Z,15.94
2019-05-14T23:23:39.425Z,15.87
2019-05-14T23:29:18.399Z,15.86
2019-05-14T23:32:28.542Z,15.67
2019-05-14T23:35:49.390Z,15.72
2019-05-14T23:38:33.147Z,15.80
2019-05-14T23:41:16.622Z,15.80
2019-05-14T23:43:39.315Z,15.75
2019-05-14T23:49:02.571Z,15.65
2019-05-14T23:54:58.904Z,15.57
2019-05-14T23:57:30.770Z,15.54
